Time;durP1;ratioP1;P1;durP2;ratioP2;P2;SDS_P1;SDS_P2;PMS_P1;PMS_P2;Temp;Humidity;BMP_temperature;BMP_pressure;BME280_temperature;BME280_humidity;BME280_pressure;Samples;Min_cycle;Max_cycle;Signal;HPM_P1;HPM_P2
2022/12/25 00:00:09;;;;;;;2.57;2.07;;;;;7.10;94080.00;;;;7398196;19;20196;-72
2022/12/25 00:02:46;;;;;;;2.47;2.03;;;;;7.10;94085.00;;;;7398495;19;20128;-71
2022/12/25 00:05:21;;;;;;;3.07;2.10;;;;;7.10;94083.00;;;;7400303;19;20124;-72
2022/12/25 00:07:49;;;;;;;2.73;2.20;;;;;7.00;94081.00;;;;7397060;19;20476;-71
2022/12/25 00:10:16;;;;;;;3.63;2.33;;;;;7.10;94083.00;;;;7398781;19;20151;-71
2022/12/25 00:12:53;;;;;;;2.40;2.10;;;;;7.00;94075.00;;;;7397796;19;20610;-71
2022/12/25 00:15:21;;;;;;;3.70;2.63;;;;;6.90;94074.00;;;;7399406;19;20156;-71
2022/12/25 00:17:48;;;;;;;4.03;2.50;;;;;6.90;94069.00;;;;7397050;19;20204;-71
2022/12/25 00:20:28;;;;;;;6.60;3.23;;;;;6.90;94083.00;;;;7399289;19;20129;-71
2022/12/25 00:22:56;;;;;;;3.57;2.80;;;;;6.90;94080.00;;;;7399668;19;20138;-71
2022/12/25 00:25:30;;;;;;;6.17;2.97;;;;;6.90;94076.00;;;;7399250;19;20137;-73
2022/12/25 00:27:57;;;;;;;9.67;3.30;;;;;6.90;94072.00;;;;7396065;19;20132;-71
2022/12/25 00:30:24;;;;;;;4.53;3.00;;;;;6.90;94067.00;;;;7396823;19;20131;-72
2022/12/25 00:32:59;;;;;;;5.10;2.97;;;;;6.90;94071.00;;;;7396424;19;20158;-71
2022/12/25 00:35:26;;;;;;;4.13;3.07;;;;;6.90;94073.00;;;;7398667;19;20611;-71
2022/12/25 00:37:54;;;;;;;4.60;3.20;;;;;6.80;94070.00;;;;7397027;19;20151;-71
2022/12/25 00:40:28;;;;;;;6.07;2.73;;;;;6.80;94082.00;;;;7397212;19;20627;-72
2022/12/25 00:42:56;;;;;;;5.27;3.23;;;;;6.90;94069.00;;;;7396363;19;20514;-71
2022/12/25 00:45:24;;;;;;;5.40;2.90;;;;;6.80;94071.00;;;;7396973;19;20129;-71
2022/12/25 00:47:58;;;;;;;4.27;2.73;;;;;6.70;94070.00;;;;7395109;19;20155;-71
2022/12/25 00:50:25;;;;;;;7.37;3.20;;;;;6.70;94072.00;;;;7396651;19;20647;-72
2022/12/25 00:52:53;;;;;;;8.70;3.60;;;;;6.60;94077.00;;;;7396685;19;20219;-72
2022/12/25 00:55:27;;;;;;;4.53;3.00;;;;;6.60;94078.00;;;;7396806;19;20472;-72
2022/12/25 00:57:54;;;;;;;4.37;3.30;;;;;6.50;94071.00;;;;7397536;19;20156;-71
2022/12/25 01:00:24;;;;;;;7.07;3.50;;;;;6.60;94070.00;;;;7404127;19;20159;-72
2022/12/25 01:02:58;;;;;;;7.07;3.37;;;;;6.60;94079.00;;;;7405615;19;20124;-72
2022/12/25 01:05:27;;;;;;;8.33;3.73;;;;;6.80;94073.00;;;;7405911;19;20125;-72
2022/12/25 01:07:55;;;;;;;5.47;3.43;;;;;6.70;94076.00;;;;7403421;19;20583;-71
2022/12/25 01:10:29;;;;;;;4.47;3.40;;;;;6.60;94069.00;;;;7404095;19;20200;-71
2022/12/25 01:12:56;;;;;;;5.77;3.47;;;;;6.60;94075.00;;;;7403561;19;20129;-71
2022/12/25 01:15:24;;;;;;;4.03;3.30;;;;;6.80;94077.00;;;;7403721;19;20149;-71
2022/12/25 01:18:05;;;;;;;5.27;3.03;;;;;6.70;94083.00;;;;7402235;19;20631;-71
2022/12/25 01:20:42;;;;;;;5.63;3.37;;;;;6.60;94088.00;;;;7401439;19;20630;-71
2022/12/25 01:23:16;;;;;;;4.13;3.07;;;;;6.60;94080.00;;;;7402398;19;20517;-72
2022/12/25 01:25:46;;;;;;;7.33;3.30;;;;;6.70;94079.00;;;;7401695;19;20618;-72
2022/12/25 01:28:14;;;;;;;3.87;3.17;;;;;6.60;94086.00;;;;7398478;19;20133;-71
2022/12/25 01:30:49;;;;;;;3.03;2.47;;;;;6.60;94084.00;;;;7396588;19;20152;-72
2022/12/25 01:33:16;;;;;;;6.33;2.70;;;;;6.60;94081.00;;;;7398833;19;20620;-72
2022/12/25 01:35:43;;;;;;;4.93;2.70;;;;;6.50;94084.00;;;;7399923;19;20135;-72
2022/12/25 01:38:17;;;;;;;3.10;1.90;;;;;6.50;94086.00;;;;7399432;19;20148;-72
2022/12/25 01:40:44;;;;;;;4.47;3.00;;;;;6.50;94080.00;;;;7400447;19;20153;-72
2022/12/25 01:43:22;;;;;;;3.30;2.70;;;;;6.50;94076.00;;;;7398905;19;20596;-72
2022/12/25 01:45:57;;;;;;;4.20;2.90;;;;;6.50;94075.00;;;;7401086;19;20575;-72
2022/12/25 01:48:32;;;;;;;3.60;2.67;;;;;6.40;94083.00;;;;7398417;19;20157;-72
2022/12/25 01:51:25;;;;;;;3.80;2.90;;;;;6.50;94078.00;;;;7400593;19;20162;-71
2022/12/25 01:53:53;;;;;;;2.80;2.40;;;;;6.40;94079.00;;;;7399730;19;20125;-72
2022/12/25 01:56:29;;;;;;;6.70;3.00;;;;;6.30;94076.00;;;;7398956;19;20135;-72
2022/12/25 01:58:59;;;;;;;6.37;2.80;;;;;6.30;94083.00;;;;7400258;19;20153;-71
2022/12/25 02:01:26;;;;;;;4.07;2.60;;;;;6.20;94087.00;;;;7399275;19;20148;-75
2022/12/25 02:04:37;;;;;;;3.93;3.13;;;;;6.20;94079.00;;;;7398484;19;20480;-75
2022/12/25 02:07:12;;;;;;;4.17;2.77;;;;;6.10;94076.00;;;;7398144;19;20132;-75
2022/12/25 02:09:48;;;;;;;3.70;2.60;;;;;6.00;94074.00;;;;7398656;19;20128;-75
2022/12/25 02:12:31;;;;;;;4.43;2.70;;;;;6.00;94072.00;;;;7400628;19;20135;-75
2022/12/25 02:15:10;;;;;;;4.47;3.10;;;;;6.00;94073.00;;;;7400645;19;20505;-75
2022/12/25 02:17:49;;;;;;;5.97;3.40;;;;;5.90;94069.00;;;;7398591;19;20156;-75
2022/12/25 02:20:36;;;;;;;3.97;2.83;;;;;5.90;94067.00;;;;7398704;19;20220;-75
2022/12/25 02:23:19;;;;;;;5.40;2.97;;;;;6.00;94057.00;;;;7398717;19;20152;-75
2022/12/25 02:26:19;;;;;;;3.10;2.77;;;;;6.10;94054.00;;;;7400538;19;20145;-75
2022/12/25 02:28:47;;;;;;;4.43;3.43;;;;;6.10;94054.00;;;;7397841;19;20133;-75
2022/12/25 02:31:39;;;;;;;4.90;2.90;;;;;6.10;94062.00;;;;7397862;19;20156;-75
2022/12/25 02:34:17;;;;;;;6.33;2.53;;;;;6.20;94059.00;;;;7394502;19;20149;-75
2022/12/25 02:37:13;;;;;;;2.67;2.37;;;;;6.10;94063.00;;;;7389615;19;20583;-75
2022/12/25 02:40:17;;;;;;;3.40;2.50;;;;;6.00;94069.00;;;;7397259;19;20572;-75
2022/12/25 03:06:45;;;;;;;9.93;3.73;;;;;5.30;94041.00;;;;7397956;19;20152;-75
2022/12/25 03:12:26;;;;;;;4.47;2.93;;;;;5.10;94026.00;;;;7396148;19;20204;-75
2022/12/25 03:17:46;;;;;;;6.17;2.90;;;;;5.10;94016.00;;;;7394562;19;20231;-74
2022/12/25 03:29:05;;;;;;;48.77;6.00;;;;;4.90;94011.00;;;;7395759;19;20189;-75
2022/12/25 03:31:44;;;;;;;9.70;3.97;;;;;4.90;94022.00;;;;7395163;19;20639;-75
2022/12/25 04:36:12;;;;;;;2.60;1.57;;;;;7.30;94007.00;;;;7395794;19;20133;-74
2022/12/25 04:38:46;;;;;;;2.33;1.57;;;;;7.30;94003.00;;;;7393508;19;20194;-74
2022/12/25 04:41:14;;;;;;;2.53;1.73;;;;;7.50;94009.00;;;;7395100;19;20148;-74
2022/12/25 04:43:41;;;;;;;3.43;1.70;;;;;7.40;94001.00;;;;7393332;19;20133;-74
2022/12/25 04:46:15;;;;;;;1.97;1.57;;;;;7.50;93999.00;;;;7394393;19;20124;-74
2022/12/25 04:48:43;;;;;;;2.17;1.80;;;;;7.50;93988.00;;;;7392053;19;20219;-75
2022/12/25 04:51:19;;;;;;;3.93;1.80;;;;;7.50;93988.00;;;;7392693;19;20117;-74
2022/12/25 04:53:53;;;;;;;2.03;1.83;;;;;7.50;93989.00;;;;7394940;19;20551;-75
2022/12/25 04:56:20;;;;;;;2.30;1.57;;;;;7.50;93991.00;;;;7393469;19;20147;-74
2022/12/25 04:58:48;;;;;;;2.33;1.63;;;;;7.60;93982.00;;;;7393114;19;20152;-75
2022/12/25 05:01:22;;;;;;;2.47;2.10;;;;;7.60;93980.00;;;;7392382;19;20538;-74
2022/12/25 05:03:56;;;;;;;1.93;1.70;;;;;7.60;93975.00;;;;7392806;19;20140;-74
2022/12/25 05:06:30;;;;;;;2.70;1.70;;;;;7.40;93972.00;;;;7393081;19;20155;-74
2022/12/25 05:08:57;;;;;;;2.60;1.50;;;;;7.30;93977.00;;;;7391800;19;20168;-74
2022/12/25 05:11:27;;;;;;;2.17;1.60;;;;;7.30;93981.00;;;;7394526;19;20212;-74
2022/12/25 05:14:00;;;;;;;3.03;1.70;;;;;7.30;93990.00;;;;7392059;19;20526;-74
2022/12/25 05:16:28;;;;;;;2.07;1.60;;;;;7.50;93986.00;;;;7392539;19;20176;-74
2022/12/25 05:18:55;;;;;;;2.37;1.80;;;;;7.40;94002.00;;;;7393315;19;20591;-75
2022/12/25 05:21:29;;;;;;;3.20;1.60;;;;;7.40;93991.00;;;;7392354;19;20145;-74
2022/12/25 05:23:57;;;;;;;3.87;1.73;;;;;7.70;94000.00;;;;7392733;19;20621;-75
2022/12/25 05:26:25;;;;;;;2.30;1.80;;;;;7.90;93993.00;;;;7392383;19;20640;-74
2022/12/25 05:28:59;;;;;;;3.57;1.70;;;;;7.90;93987.00;;;;7390634;19;20136;-74
2022/12/25 05:31:27;;;;;;;3.43;1.77;;;;;8.00;93980.00;;;;7392845;19;20257;-74
2022/12/25 05:33:54;;;;;;;2.23;1.63;;;;;8.00;93981.00;;;;7393344;19;20587;-74
2022/12/25 05:36:28;;;;;;;2.47;1.70;;;;;8.10;93978.00;;;;7391942;19;20117;-75
2022/12/25 05:38:56;;;;;;;1.93;1.70;;;;;8.00;93976.00;;;;7391709;19;20117;-73
2022/12/25 05:41:25;;;;;;;2.70;1.50;;;;;7.70;93967.00;;;;7393682;19;20129;-74
2022/12/25 05:44:01;;;;;;;3.67;1.60;;;;;7.80;93973.00;;;;7395282;19;20587;-74
2022/12/25 05:46:28;;;;;;;2.10;1.60;;;;;7.80;93966.00;;;;7398555;19;20145;-74
2022/12/25 05:48:56;;;;;;;3.30;1.63;;;;;7.50;93962.00;;;;7399341;19;20125;-74
2022/12/25 05:51:30;;;;;;;2.93;1.57;;;;;7.70;93968.00;;;;7399217;19;20160;-73
2022/12/25 05:53:58;;;;;;;2.23;1.40;;;;;7.70;93956.00;;;;7399374;19;20153;-74
2022/12/25 05:56:26;;;;;;;1.90;1.57;;;;;7.70;93958.00;;;;7392144;19;20128;-74
2022/12/25 05:58:59;;;;;;;2.63;1.60;;;;;7.50;93960.00;;;;7400041;19;20120;-73
2022/12/25 06:01:28;;;;;;;2.40;1.67;;;;;7.20;93969.00;;;;7400246;19;21739;-75
2022/12/25 06:03:56;;;;;;;2.83;1.50;;;;;7.20;93961.00;;;;7400844;19;20128;-74
2022/12/25 06:06:39;;;;;;;2.30;1.23;;;;;7.10;93974.00;;;;7400541;19;20150;-73
2022/12/25 06:09:07;;;;;;;3.10;1.43;;;;;7.00;93970.00;;;;7397272;19;20135;-74
2022/12/25 06:11:42;;;;;;;3.53;1.37;;;;;6.90;93965.00;;;;7400750;19;20647;-74
2022/12/25 06:14:14;;;;;;;5.77;1.50;;;;;7.00;93967.00;;;;7399796;19;20144;-74
2022/12/25 06:16:41;;;;;;;2.40;1.50;;;;;7.00;93965.00;;;;7397715;19;20223;-74
2022/12/25 06:19:22;;;;;;;1.97;1.50;;;;;6.90;93957.00;;;;7396566;19;20179;-74
2022/12/25 06:21:54;;;;;;;2.57;1.40;;;;;6.90;93963.00;;;;7399659;19;20152;-74
2022/12/25 06:24:29;;;;;;;1.43;1.30;;;;;7.00;93958.00;;;;7399786;19;20132;-74
2022/12/25 06:26:57;;;;;;;4.57;1.80;;;;;7.00;93964.00;;;;7400459;19;20125;-74
2022/12/25 06:29:25;;;;;;;3.93;2.10;;;;;7.00;93965.00;;;;7398863;19;20467;-74
2022/12/25 06:31:59;;;;;;;3.80;1.20;;;;;7.00;93966.00;;;;7398675;19;20140;-73
2022/12/25 06:34:27;;;;;;;17.00;2.03;;;;;6.80;93956.00;;;;7400160;19;20148;-74
2022/12/25 06:36:55;;;;;;;161.03;8.27;;;;;6.60;93948.00;;;;7402007;19;20137;-74
2022/12/25 06:39:31;;;;;;;21.83;2.33;;;;;6.50;93952.00;;;;7400685;19;20156;-74
2022/12/25 06:41:58;;;;;;;50.67;3.63;;;;;6.40;93964.00;;;;7400981;19;20628;-74
2022/12/25 06:44:26;;;;;;;124.97;8.70;;;;;6.50;93972.00;;;;7400900;19;20575;-74
2022/12/25 06:47:00;;;;;;;3.57;2.27;;;;;6.60;93970.00;;;;7397416;19;20139;-74
2022/12/25 06:49:28;;;;;;;3.70;2.50;;;;;6.60;93964.00;;;;7396512;19;20148;-74
2022/12/25 06:51:55;;;;;;;4.63;2.50;;;;;6.60;93964.00;;;;7400196;19;20125;-74
2022/12/25 06:54:29;;;;;;;6.10;2.50;;;;;6.60;93965.00;;;;7401649;19;20467;-74
2022/12/25 06:56:57;;;;;;;5.53;2.43;;;;;6.50;93955.00;;;;7394995;19;20228;-73
2022/12/25 06:59:24;;;;;;;4.67;2.70;;;;;6.50;93942.00;;;;7402400;19;20516;-73
2022/12/25 07:01:58;;;;;;;76.40;5.73;;;;;6.50;93955.00;;;;7400381;19;20149;-74
2022/12/25 07:04:34;;;;;;;160.53;7.40;;;;;6.40;93954.00;;;;7400791;19;20151;-74
2022/12/25 07:07:09;;;;;;;4.23;2.80;;;;;6.50;93966.00;;;;7399460;19;20160;-74
2022/12/25 07:09:41;;;;;;;3.13;2.13;;;;;6.60;93957.00;;;;7399327;19;20129;-72
2022/12/25 07:12:18;;;;;;;3.67;2.63;;;;;6.60;93960.00;;;;7398867;19;20160;-74
2022/12/25 07:14:48;;;;;;;3.17;2.27;;;;;6.60;93961.00;;;;7397888;19;20627;-73
2022/12/25 07:17:23;;;;;;;3.60;2.20;;;;;6.70;93957.00;;;;7399319;19;20172;-74
2022/12/25 07:19:57;;;;;;;5.03;2.23;;;;;6.60;93950.00;;;;7399490;19;20165;-74
2022/12/25 07:22:31;;;;;;;3.10;2.10;;;;;6.50;93947.00;;;;7400720;19;20491;-74
2022/12/25 07:24:59;;;;;;;3.27;2.17;;;;;6.40;93945.00;;;;7401227;19;20125;-74
2022/12/25 07:27:27;;;;;;;32.17;2.90;;;;;6.50;93950.00;;;;7401193;19;20650;-74
2022/12/25 07:30:01;;;;;;;4.37;1.93;;;;;6.40;93948.00;;;;7400276;19;20120;-73
2022/12/25 07:32:32;;;;;;;3.77;2.17;;;;;6.20;93943.00;;;;7400580;19;20125;-74
2022/12/25 07:35:00;;;;;;;26.63;3.20;;;;;6.00;93936.00;;;;7398138;19;20502;-74
2022/12/25 07:37:34;;;;;;;11.50;2.63;;;;;6.00;93940.00;;;;7400214;19;20187;-74
2022/12/25 07:40:04;;;;;;;4.13;2.47;;;;;6.10;93932.00;;;;7399921;19;20619;-74
2022/12/25 07:42:31;;;;;;;5.93;3.53;;;;;6.10;93930.00;;;;7401084;19;20596;-74
2022/12/25 07:45:06;;;;;;;7.83;2.73;;;;;6.20;93935.00;;;;7403337;19;20125;-74
2022/12/25 07:47:34;;;;;;;4.50;3.23;;;;;6.50;93930.00;;;;7402528;19;20132;-74
2022/12/25 07:50:01;;;;;;;5.83;3.57;;;;;6.40;93929.00;;;;7401099;19;20530;-74
2022/12/25 07:52:35;;;;;;;7.07;3.60;;;;;6.60;93936.00;;;;7398726;19;20152;-74
2022/12/25 07:55:10;;;;;;;7.10;4.13;;;;;6.60;93949.00;;;;7400337;19;20144;-73
2022/12/25 07:57:44;;;;;;;6.33;4.10;;;;;6.50;93948.00;;;;7401878;19;20195;-74
2022/12/25 08:00:13;;;;;;;14.47;5.17;;;;;6.70;93954.00;;;;7402954;19;20132;-74
2022/12/25 08:02:42;;;;;;;8.37;5.10;;;;;6.90;93960.00;;;;7401952;19;20129;-74
2022/12/25 08:05:17;;;;;;;7.57;5.00;;;;;7.20;93952.00;;;;7401282;19;20594;-74
2022/12/25 08:07:44;;;;;;;9.83;5.33;;;;;7.30;93956.00;;;;7396276;19;20523;-74
2022/12/25 08:10:12;;;;;;;8.17;4.90;;;;;7.40;93952.00;;;;7397411;19;20762;-74
2022/12/25 08:12:48;;;;;;;8.87;5.53;;;;;7.70;93953.00;;;;7396705;19;20152;-74
2022/12/25 08:15:18;;;;;;;7.90;4.90;;;;;7.80;93952.00;;;;7396224;19;20149;-74
2022/12/25 08:17:45;;;;;;;9.33;5.30;;;;;7.90;93950.00;;;;7397977;19;20136;-74
2022/12/25 08:20:26;;;;;;;10.90;5.47;;;;;8.00;93952.00;;;;7389481;19;20527;-73
2022/12/25 08:22:54;;;;;;;11.60;5.57;;;;;8.10;93951.00;;;;7395049;19;20156;-73
2022/12/25 08:25:28;;;;;;;8.50;5.30;;;;;8.30;93957.00;;;;7395600;19;20163;-74
2022/12/25 08:27:55;;;;;;;11.80;5.43;;;;;8.40;93964.00;;;;7394756;19;20204;-73
2022/12/25 08:30:23;;;;;;;7.57;4.93;;;;;8.30;93964.00;;;;7394589;19;20165;-74
2022/12/25 08:32:57;;;;;;;8.50;5.00;;;;;8.30;93965.00;;;;7397415;19;20578;-74
2022/12/25 08:35:25;;;;;;;9.47;4.87;;;;;8.50;93967.00;;;;7395153;19;20191;-74
2022/12/25 08:37:52;;;;;;;9.20;5.47;;;;;8.40;93968.00;;;;7394565;19;20128;-72
2022/12/25 08:40:27;;;;;;;9.10;5.57;;;;;8.40;93959.00;;;;7397630;19;20500;-74
2022/12/25 08:42:58;;;;;;;8.70;5.03;;;;;8.30;93961.00;;;;7395064;19;20153;-74
2022/12/25 08:45:29;;;;;;;9.57;5.03;;;;;8.30;93953.00;;;;7395695;19;20160;-73
2022/12/25 08:48:03;;;;;;;7.33;4.17;;;;;8.20;93948.00;;;;7397157;19;20147;-74
2022/12/25 08:50:31;;;;;;;7.27;4.70;;;;;8.10;93932.00;;;;7394088;19;20662;-74
2022/12/25 08:52:58;;;;;;;7.87;5.23;;;;;8.50;93923.00;;;;7395445;19;20488;-74
2022/12/25 08:55:33;;;;;;;5.70;3.97;;;;;8.50;93905.00;;;;7397040;19;20158;-74
2022/12/25 08:58:01;;;;;;;5.97;4.07;;;;;9.00;93914.00;;;;7395170;19;20521;-75
2022/12/25 09:00:29;;;;;;;7.72;4.50;;;;;9.40;93922.00;;;;7399286;19;20616;-77
2022/12/25 09:03:10;;;;;;;6.93;4.80;;;;;9.60;93930.00;;;;7394494;19;20187;-73
2022/12/25 09:05:40;;;;;;;6.18;4.38;;;;;9.70;93932.00;;;;7395625;19;20654;-75
2022/12/25 09:08:14;;;;;;;5.38;4.25;;;;;10.40;93914.00;;;;7398325;19;20650;-77
2022/12/25 09:10:41;;;;;;;6.10;4.32;;;;;10.90;93929.00;;;;7396364;19;20160;-77
2022/12/25 09:13:09;;;;;;;7.28;4.05;;;;;10.80;93924.00;;;;7400564;19;20129;-77
2022/12/25 09:15:47;;;;;;;4.85;3.78;;;;;11.40;93927.00;;;;7399189;19;20156;-76
2022/12/25 09:18:15;;;;;;;6.28;3.78;;;;;11.50;93929.00;;;;7394018;19;20153;-77
2022/12/25 09:20:44;;;;;;;6.25;3.58;;;;;12.00;93919.00;;;;7396345;19;20550;-77
2022/12/25 09:23:21;;;;;;;5.07;3.15;;;;;12.10;93933.00;;;;7403185;19;20148;-77
2022/12/25 09:25:48;;;;;;;3.97;3.15;;;;;11.90;93935.00;;;;7398709;19;20164;-77
2022/12/25 09:28:16;;;;;;;3.20;2.83;;;;;11.90;93933.00;;;;7402837;19;20141;-77
2022/12/25 09:30:50;;;;;;;3.00;2.70;;;;;11.80;93932.00;;;;7399270;19;20153;-75
2022/12/25 09:33:19;;;;;;;3.63;2.70;;;;;11.60;93928.00;;;;7403317;19;20612;-75
2022/12/25 09:36:16;;;;;;;4.57;2.40;;;;;11.90;93927.00;;;;7399769;19;20133;-76
2022/12/25 09:38:50;;;;;;;4.38;2.58;;;;;12.20;93929.00;;;;7400806;19;20163;-75
2022/12/25 09:41:49;;;;;;;3.80;2.67;;;;;12.60;93926.00;;;;7405555;19;20137;-76
2022/12/25 09:44:46;;;;;;;4.13;2.22;;;;;12.20;93936.00;;;;7404692;19;20124;-76
2022/12/25 09:47:18;;;;;;;5.18;2.40;;;;;11.80;93935.00;;;;7403735;19;20136;-75
2022/12/25 09:50:04;;;;;;;2.47;2.28;;;;;11.40;93935.00;;;;7401860;19;20144;-76
2022/12/25 09:52:53;;;;;;;2.53;1.95;;;;;11.70;93937.00;;;;7402618;19;20148;-74
2022/12/25 09:55:33;;;;;;;2.35;2.00;;;;;12.20;93921.00;;;;7402696;19;20149;-75
2022/12/25 09:58:07;;;;;;;3.58;1.92;;;;;12.80;93908.00;;;;7403211;19;20657;-76
2022/12/25 10:00:46;;;;;;;1.85;1.73;;;;;13.40;93907.00;;;;7402138;19;20140;-76
2022/12/25 10:03:43;;;;;;;2.15;1.70;;;;;13.80;93903.00;;;;7402092;19;20212;-76
2022/12/25 10:06:26;;;;;;;1.98;1.58;;;;;13.90;93897.00;;;;7402733;19;20535;-75
2022/12/25 10:08:59;;;;;;;2.60;1.75;;;;;14.50;93891.00;;;;7401222;19;20503;-76
2022/12/25 10:11:54;;;;;;;2.08;1.73;;;;;15.10;93892.00;;;;7399140;19;20166;-77
2022/12/25 10:14:40;;;;;;;1.63;1.52;;;;;15.00;93890.00;;;;7403785;19;20639;-76
2022/12/25 10:17:58;;;;;;;4.70;1.90;;;;;14.70;93891.00;;;;7401899;19;20162;-75
2022/12/25 10:20:51;;;;;;;1.95;1.50;;;;;14.10;93890.00;;;;7398031;19;20224;-75
2022/12/25 10:23:30;;;;;;;2.20;2.00;;;;;13.70;93889.00;;;;7401764;19;20204;-76
2022/12/25 10:25:57;;;;;;;1.60;1.50;;;;;14.10;93897.00;;;;7403180;19;20503;-75
2022/12/25 10:28:42;;;;;;;3.10;1.50;;;;;14.20;93897.00;;;;7401450;19;20615;-75
2022/12/25 10:31:28;;;;;;;2.03;1.67;;;;;14.10;93888.00;;;;7397663;19;20641;-76
2022/12/25 10:33:56;;;;;;;2.63;2.08;;;;;14.20;93878.00;;;;7402134;19;20152;-74
2022/12/25 10:36:31;;;;;;;3.05;1.65;;;;;14.70;93884.00;;;;7402822;19;20140;-76
2022/12/25 10:38:58;;;;;;;2.30;1.60;;;;;14.70;93883.00;;;;7401411;19;20583;-75
2022/12/25 10:41:44;;;;;;;2.67;1.50;;;;;14.50;93874.00;;;;7400319;19;20148;-75
2022/12/25 10:44:23;;;;;;;1.42;1.25;;;;;14.40;93873.00;;;;7396822;19;20121;-76
2022/12/25 10:46:56;;;;;;;2.55;1.58;;;;;14.20;93869.00;;;;7401775;19;20128;-76
2022/12/25 10:49:38;;;;;;;1.73;1.50;;;;;14.40;93864.00;;;;7400676;19;20168;-76
2022/12/25 10:52:21;;;;;;;3.33;1.83;;;;;14.80;93862.00;;;;7401145;19;20139;-75
2022/12/25 10:54:55;;;;;;;1.70;1.40;;;;;15.40;93854.00;;;;7398171;19;20147;-75
2022/12/25 10:57:25;;;;;;;3.25;1.30;;;;;15.90;93867.00;;;;7398692;19;20149;-76
2022/12/25 10:59:55;;;;;;;1.70;1.60;;;;;15.30;93874.00;;;;7392409;19;20136;-76
2022/12/25 11:02:39;;;;;;;1.33;1.20;;;;;14.50;93878.00;;;;7401067;19;20136;-75
2022/12/25 11:05:12;;;;;;;1.75;1.30;;;;;14.20;93870.00;;;;7401594;19;20490;-76
2022/12/25 11:07:54;;;;;;;2.45;1.48;;;;;14.40;93872.00;;;;7402050;19;20136;-75
2022/12/25 11:10:26;;;;;;;1.40;1.30;;;;;14.40;93872.00;;;;7400174;19;20138;-74
2022/12/25 11:13:03;;;;;;;1.58;1.40;;;;;14.20;93872.00;;;;7400483;19;20216;-77
2022/12/25 11:15:35;;;;;;;1.98;1.23;;;;;14.00;93864.00;;;;7401323;19;20508;-75
2022/12/25 11:18:28;;;;;;;1.98;1.40;;;;;13.90;93856.00;;;;7398025;19;20176;-76
2022/12/25 11:21:05;;;;;;;1.63;1.50;;;;;14.40;93850.00;;;;7398203;19;20170;-77
2022/12/25 11:23:49;;;;;;;1.75;1.45;;;;;14.10;93856.00;;;;7399740;19;20121;-77
2022/12/25 11:26:17;;;;;;;2.08;1.65;;;;;13.70;93850.00;;;;7400285;19;20151;-76
2022/12/25 11:28:54;;;;;;;1.50;1.27;;;;;13.50;93833.00;;;;7400990;19;20471;-74
2022/12/25 11:31:30;;;;;;;1.90;1.40;;;;;13.60;93827.00;;;;7398724;19;20256;-76
2022/12/25 11:34:28;;;;;;;2.38;1.48;;;;;14.50;93830.00;;;;7399025;19;20160;-77
2022/12/25 11:37:02;;;;;;;1.85;1.35;;;;;15.50;93819.00;;;;7399242;19;20143;-76
2022/12/25 11:39:38;;;;;;;1.30;1.20;;;;;15.60;93823.00;;;;7400664;19;20129;-76
2022/12/25 11:42:33;;;;;;;1.83;1.52;;;;;16.40;93812.00;;;;7398724;19;20160;-76
2022/12/25 11:45:26;;;;;;;1.63;1.20;;;;;17.00;93813.00;;;;7399105;19;20138;-76
2022/12/25 11:47:59;;;;;;;2.05;1.42;;;;;16.80;93807.00;;;;7400697;19;20583;-76
2022/12/25 11:50:43;;;;;;;3.63;1.13;;;;;17.00;93811.00;;;;7398823;19;20623;-76
2022/12/25 11:53:40;;;;;;;1.45;1.15;;;;;16.60;93802.00;;;;7400956;19;20128;-75
2022/12/25 11:56:18;;;;;;;1.88;1.30;;;;;17.00;93788.00;;;;7398480;19;20183;-74
2022/12/25 11:59:10;;;;;;;1.35;1.25;;;;;17.40;93786.00;;;;7399918;19;20125;-75
2022/12/25 12:01:51;;;;;;;1.23;1.13;;;;;17.30;93779.00;;;;7397910;19;20170;-75
2022/12/25 12:04:34;;;;;;;1.27;1.05;;;;;16.90;93773.00;;;;7400885;19;20609;-77
2022/12/25 12:07:27;;;;;;;1.30;1.10;;;;;17.50;93779.00;;;;7397850;19;20173;-75
2022/12/25 12:10:26;;;;;;;1.20;1.00;;;;;17.60;93772.00;;;;7398157;19;20151;-75
2022/12/25 12:13:26;;;;;;;1.20;1.10;;;;;17.50;93768.00;;;;7399583;19;20141;-75
2022/12/25 12:15:54;;;;;;;1.10;1.00;;;;;16.90;93760.00;;;;7398093;19;20137;-75
2022/12/25 12:18:32;;;;;;;1.02;0.93;;;;;17.20;93776.00;;;;7395157;19;20186;-74
2022/12/25 12:21:09;;;;;;;1.83;1.20;;;;;16.10;93787.00;;;;7397552;19;20169;-76
2022/12/25 12:24:18;;;;;;;1.48;1.27;;;;;15.20;93783.00;;;;7397465;19;20147;-76
2022/12/25 12:26:58;;;;;;;1.38;1.27;;;;;15.20;93791.00;;;;7393785;19;20156;-75
2022/12/25 12:29:44;;;;;;;1.15;1.00;;;;;15.10;93787.00;;;;7398513;19;20149;-75
2022/12/25 12:32:42;;;;;;;1.23;1.13;;;;;16.50;93788.00;;;;7396110;19;20159;-74
2022/12/25 12:35:27;;;;;;;1.30;1.15;;;;;16.90;93784.00;;;;7399100;19;20477;-75
2022/12/25 12:38:03;;;;;;;2.83;1.10;;;;;17.60;93787.00;;;;7396294;19;20148;-75
2022/12/25 12:40:50;;;;;;;1.85;1.10;;;;;18.00;93776.00;;;;7397035;19;20150;-74
2022/12/25 12:43:39;;;;;;;1.25;1.15;;;;;17.50;93781.00;;;;7395286;19;20125;-76
2022/12/25 12:46:22;;;;;;;1.42;1.10;;;;;18.20;93782.00;;;;7397196;19;20186;-76
2022/12/25 12:49:31;;;;;;;2.05;1.17;;;;;18.20;93776.00;;;;7398906;19;20599;-76
2022/12/25 12:52:25;;;;;;;1.48;1.25;;;;;18.20;93772.00;;;;7389743;19;20169;-79
2022/12/25 12:54:59;;;;;;;1.88;1.15;;;;;18.30;93761.00;;;;7393248;19;20196;-77
2022/12/25 12:57:38;;;;;;;1.58;0.98;;;;;18.60;93749.00;;;;7395134;19;20228;-77
2022/12/25 13:00:18;;;;;;;1.00;1.00;;;;;18.80;93753.00;;;;7394878;19;20197;-74
2022/12/25 13:03:11;;;;;;;1.80;1.00;;;;;18.40;93760.00;;;;7397175;19;20591;-76
2022/12/25 13:05:54;;;;;;;4.13;1.20;;;;;18.10;93758.00;;;;7397610;19;20141;-76
2022/12/25 13:08:50;;;;;;;1.23;1.13;;;;;18.30;93758.00;;;;7397166;19;20725;-75
2022/12/25 13:11:24;;;;;;;1.83;1.17;;;;;17.60;93769.00;;;;7393526;19;20144;-75
2022/12/25 13:14:01;;;;;;;1.45;1.00;;;;;17.60;93749.00;;;;7395957;19;20614;-76
2022/12/25 13:16:34;;;;;;;1.10;1.00;;;;;17.10;93757.00;;;;7395206;19;20149;-75
2022/12/25 13:19:24;;;;;;;1.20;1.10;;;;;16.70;93772.00;;;;7395891;19;20140;-75
2022/12/25 13:22:05;;;;;;;1.38;1.27;;;;;16.90;93777.00;;;;7393422;19;20153;-77
2022/12/25 13:24:39;;;;;;;1.48;1.38;;;;;16.50;93771.00;;;;7396178;19;20449;-75
2022/12/25 13:27:25;;;;;;;1.20;1.10;;;;;16.70;93780.00;;;;7395346;19;20243;-76
2022/12/25 13:30:12;;;;;;;1.75;1.30;;;;;16.60;93782.00;;;;7397199;19;20507;-77
2022/12/25 13:32:41;;;;;;;1.23;1.13;;;;;16.40;93778.00;;;;7393884;19;20140;-75
2022/12/25 13:35:21;;;;;;;3.08;1.08;;;;;16.20;93786.00;;;;7393902;19;20156;-76
2022/12/25 13:37:49;;;;;;;1.40;1.15;;;;;15.60;93791.00;;;;7397214;19;20129;-74
2022/12/25 13:40:26;;;;;;;4.30;1.20;;;;;14.60;93789.00;;;;7396484;19;20497;-75
2022/12/25 13:43:00;;;;;;;1.40;1.00;;;;;14.30;93793.00;;;;7395384;19;20624;-76
2022/12/25 13:45:29;;;;;;;1.48;1.25;;;;;13.80;93787.00;;;;7395118;19;20133;-74
2022/12/25 13:48:08;;;;;;;1.20;1.10;;;;;13.60;93783.00;;;;7395681;19;20133;-75
2022/12/25 13:50:47;;;;;;;2.58;1.10;;;;;13.30;93784.00;;;;7395327;19;20474;-75
2022/12/25 13:53:16;;;;;;;2.67;1.10;;;;;13.40;93780.00;;;;7393704;19;20133;-76
2022/12/25 13:55:53;;;;;;;1.38;1.05;;;;;13.40;93781.00;;;;7396041;19;20139;-76
2022/12/25 13:58:32;;;;;;;1.13;0.98;;;;;13.80;93794.00;;;;7395271;19;20212;-75
2022/12/25 14:01:06;;;;;;;1.08;0.95;;;;;13.60;93788.00;;;;7396314;19;20150;-75
2022/12/25 14:03:36;;;;;;;0.90;0.80;;;;;13.40;93789.00;;;;7395515;19;20153;-77
2022/12/25 14:06:16;;;;;;;1.30;1.10;;;;;13.20;93790.00;;;;7397592;19;20168;-75
2022/12/25 14:08:51;;;;;;;1.20;1.02;;;;;13.10;93786.00;;;;7400475;19;20212;-75
2022/12/25 14:11:21;;;;;;;1.13;0.93;;;;;13.00;93785.00;;;;7401700;19;20212;-76
2022/12/25 14:13:56;;;;;;;1.40;0.95;;;;;12.80;93780.00;;;;7398649;19;20635;-76
2022/12/25 14:16:29;;;;;;;0.80;0.80;;;;;12.50;93778.00;;;;7402165;19;20168;-75
2022/12/25 14:19:00;;;;;;;2.35;0.98;;;;;12.40;93783.00;;;;7402025;19;20168;-76
2022/12/25 14:21:35;;;;;;;1.30;1.00;;;;;12.30;93781.00;;;;7396873;19;20190;-76
2022/12/25 14:24:18;;;;;;;0.80;0.80;;;;;12.20;93777.00;;;;7403736;19;20124;-75
2022/12/25 14:26:55;;;;;;;1.95;0.85;;;;;12.00;93778.00;;;;7402387;19;20149;-75
2022/12/25 14:29:50;;;;;;;4.03;1.20;;;;;12.00;93772.00;;;;7401772;19;20188;-76
2022/12/25 14:32:21;;;;;;;1.15;1.05;;;;;12.00;93775.00;;;;7400932;19;20462;-76
2022/12/25 14:35:02;;;;;;;1.02;0.90;;;;;11.80;93789.00;;;;7400906;19;20129;-75
2022/12/25 14:37:31;;;;;;;1.08;0.95;;;;;11.80;93781.00;;;;7401391;19;20479;-76
2022/12/25 14:40:29;;;;;;;1.00;1.00;;;;;11.70;93785.00;;;;7401570;19;20140;-75
2022/12/25 14:43:00;;;;;;;1.13;1.02;;;;;11.70;93785.00;;;;7401927;19;20922;-75
2022/12/25 14:45:37;;;;;;;1.10;1.00;;;;;11.60;93787.00;;;;7402401;19;20140;-74